Nearby METAR Reports

 

EGKB - Biggin Hill, United Kingdom
Distance from station: S 5mi, 8km
Updated: 22/10/2014 20:20
NOT Current
Partly cloudy
Partly cloudy
 Wind from WSW
Wind: WSW 6 mph , 9 km/h
Temperature: 11°C
Dew Point: 7°C
Humidity: 77%
Barometer: 1024 hPa
Clouds: Partly cloudy
Visibility: 6 miles , 10 km
Cloud details: Partly cloudy 762 m
2014/10/22 19:20 EGKB 221920Z 24005KT 210V270 9999 SCT025 11/07 Q1024
EGLC - London City Airp, United Kingdom
Distance from station: NNE 8mi, 13km
Updated: 23/10/2014 03:50
Mostly cloudy
Mostly cloudy
 Wind from SW
Wind: SW 7 mph , 11 km/h
Temperature: 12°C
Dew Point: 8°C
Humidity: 77%
Barometer: 1021 hPa
Clouds: Mostly cloudy
Visibility: 6 miles , 10 km
Cloud details: Mostly cloudy 853 m
2014/10/23 02:50 EGLC 230250Z AUTO 23006KT 9999 BKN028/// 12/08 Q1021
 
EGKK - London/Gatwick A, United Kingdom
Distance from station: SSW 19mi, 31km
Updated: 23/10/2014 03:50
Mostly cloudy
Mostly cloudy
 Wind from SW
Wind: SW 7 mph , 11 km/h
Temperature: 11°C
Dew Point: 8°C
Humidity: 82%
Barometer: 1022 hPa
Clouds: Mostly cloudy
Visibility: 6 miles , 10 km
Cloud details: Mostly cloudy 914 m
2014/10/23 02:50 EGKK 230250Z 22006KT 9999 BKN030 11/08 Q1022
EGLL - London/Heathrow, United Kingdom
Distance from station: WNW 21mi, 33km
Updated: 23/10/2014 03:50
Mostly cloudy
Mostly cloudy
 Wind from SW
Wind: SW 9 mph , 15 km/h
Temperature: 12°C
Dew Point: 8°C
Humidity: 77%
Barometer: 1022 hPa
Clouds: Mostly cloudy
Visibility: 6 miles , 10 km
Cloud details: Mostly cloudy 1006 m
2014/10/23 02:50 EGLL 230250Z 22008KT 9999 BKN033 12/08 Q1022 NOSIG